Terminal Aerodrome Forecast
Issued by NWS Fort Wayne, IN

Home | Current Version | Previous Version | Text Only | Print | Product List | Glossary Off
Versions: 1 2 3 4 5 6 7 8 9 10 11 12 13

000
FTUS43 KIWX 241700
TAFFWA
TAF
KFWA 241737Z 2418/2518 23006KT P6SM SCT250
     FM242300 06005KT P6SM BKN080
     FM250300 10006KT P6SM BKN060
     FM250800 09011G17KT P6SM OVC050
     FM251500 09013G21KT 6SM -RA BR OVC040=

USA.gov is the U.S. government's official web portal to all federal, state and local government web resources and services.